Main page
METAR-TAF:

METAR-TAF

Airports :

Martinique Aimé Césaire International Airport

Fort-de-France, Martinique

latitude: 14-36N, longitude: 061-00W, elevation: 5 m

Current weather observation

The report was made 16 minutes ago, at 18:00 UTC
Wind 12 kt from the East/Southeast
Temperature 29°C
Humidity 74%
Pressure 1009 hPa
Visibility 10 km or more
Few clouds at a height of 2100 ft
Scattered clouds at a height of 4000 ft
Broken clouds at a height of 4800 ft

METAR: TFFF 201800Z AUTO 11012KT 9999 FEW021 SCT040 BKN048 29/24 Q1009 TEMPO 3000 SHRA SCT015CB

Time: 14:16 (18:16 UTC)

Forecast

The report was made 2 hours and 16 minutes ago, at 16:00 UTC
Forecast valid from 20 at 18 UTC to 21 at 18 UTC
Wind 11 kt from the East
Visibility 10 km or more
Scattered clouds at a height of 3000 ft
Temporary
from 20 at 18 UTC to 21 at 18 UTC
Visibility: 3000 m
Scattered clouds at a height of 1500 ft, Cumulonimbus.
rain showers

TAF: TFFF 201600Z 2018/2118 10011KT 9999 SCT030 TEMPO 2018/2118 3000 SHRA SCT015CB

Weather observations and forecasts of more than 4000 airports (METAR and TAF reports).

The available stations are represented by yellow and red dots on the map.

Hover mouse over dot to see the name of the station.

Then click to see weather observations and forecasts.

To change the map : click on the green buttons with a black cross to zoom in, on the green button with a dash to zoom out, or on the green arrows for adjacent maps.


METAR-TAF: